Time;durP1;ratioP1;P1;durP2;ratioP2;P2;SDS_P1;SDS_P2;PMS_P1;PMS_P2;Temp;Humidity;BMP_temperature;BMP_pressure;BME280_temperature;BME280_humidity;BME280_pressure;Samples;Min_cycle;Max_cycle;Signal;HPM_P1;HPM_P2
2023/08/19 00:01:34;;;;;;;8.95;7.47;;;22.60;99.90;;;;;;4978668;28;20085;-74
2023/08/19 00:04:00;;;;;;;11.48;8.25;;;22.50;99.90;;;;;;4972928;28;20039;-74
2023/08/19 00:06:36;;;;;;;12.52;7.03;;;22.40;99.90;;;;;;4965661;28;20019;-77
2023/08/19 00:09:04;;;;;;;14.45;8.70;;;22.30;99.90;;;;;;4979864;28;20464;-76
2023/08/19 00:11:30;;;;;;;13.73;7.50;;;22.10;99.90;;;;;;4974838;28;20026;-76
2023/08/19 00:13:56;;;;;;;12.85;8.38;;;22.00;99.90;;;;;;4965266;28;20117;-74
2023/08/19 00:16:22;;;;;;;9.82;8.27;;;22.10;99.90;;;;;;4967792;28;20445;-76
2023/08/19 00:18:48;;;;;;;9.20;7.90;;;22.20;99.90;;;;;;4969553;28;20645;-76
2023/08/19 00:21:14;;;;;;;13.18;8.25;;;22.20;99.90;;;;;;4967454;28;20026;-74
2023/08/19 00:23:40;;;;;;;9.82;7.97;;;22.20;99.90;;;;;;4974279;28;20109;-76
2023/08/19 00:26:05;;;;;;;18.23;8.95;;;22.00;99.90;;;;;;4969778;28;20472;-74
2023/08/19 00:28:31;;;;;;;12.77;8.02;;;22.00;99.90;;;;;;4968973;28;20483;-73
2023/08/19 00:30:57;;;;;;;9.18;7.57;;;22.10;99.90;;;;;;4971808;28;20037;-76
2023/08/19 00:33:25;;;;;;;12.73;8.00;;;22.10;99.90;;;;;;4970870;28;20482;-74
2023/08/19 00:35:51;;;;;;;10.88;8.63;;;22.00;99.90;;;;;;4966445;28;20125;-76
2023/08/19 00:38:17;;;;;;;11.55;8.18;;;22.00;99.90;;;;;;4967863;28;20121;-77
2023/08/19 00:40:43;;;;;;;14.50;8.18;;;22.00;99.90;;;;;;4971613;28;20981;-74
2023/08/19 00:43:09;;;;;;;12.93;8.10;;;22.00;99.90;;;;;;4967223;28;20590;-73
2023/08/19 00:45:43;;;;;;;9.32;7.45;;;22.00;99.90;;;;;;4969923;28;20392;-74
2023/08/19 00:48:10;;;;;;;11.45;7.25;;;22.00;99.90;;;;;;4974919;28;20037;-75
2023/08/19 00:50:36;;;;;;;9.02;7.75;;;22.10;99.90;;;;;;4979336;28;20087;-74
2023/08/19 00:53:03;;;;;;;9.55;7.78;;;22.10;99.90;;;;;;4968621;28;20433;-73
2023/08/19 00:55:29;;;;;;;13.98;6.80;;;22.00;99.90;;;;;;4973769;28;20105;-74
2023/08/19 00:57:55;;;;;;;9.98;7.55;;;21.80;99.90;;;;;;4975688;28;20035;-74
2023/08/19 01:00:22;;;;;;;11.88;8.15;;;21.80;99.90;;;;;;4978206;28;20034;-75
2023/08/19 01:02:48;;;;;;;10.98;8.65;;;21.70;99.90;;;;;;4980049;28;20022;-74
2023/08/19 01:05:13;;;;;;;10.00;8.38;;;21.50;99.90;;;;;;4979987;28;20105;-74
2023/08/19 01:07:53;;;;;;;11.88;7.60;;;21.60;99.90;;;;;;4980745;28;20034;-74
2023/08/19 01:10:44;;;;;;;10.88;7.95;;;21.40;99.90;;;;;;4978040;28;20105;-76
2023/08/19 01:13:15;;;;;;;9.65;8.35;;;21.30;99.90;;;;;;4980079;28;20041;-75
2023/08/19 01:15:53;;;;;;;12.98;9.73;;;21.10;99.90;;;;;;4974688;28;20049;-76
2023/08/19 01:18:21;;;;;;;9.57;7.72;;;21.10;99.90;;;;;;4977478;28;20061;-76
2023/08/19 01:20:47;;;;;;;11.38;7.93;;;21.00;99.90;;;;;;4978965;28;20035;-75
2023/08/19 01:23:23;;;;;;;12.60;8.50;;;21.00;99.90;;;;;;4981861;28;20392;-74
2023/08/19 01:25:49;;;;;;;12.57;7.95;;;21.00;99.90;;;;;;4981980;28;20065;-76
2023/08/19 01:28:14;;;;;;;11.30;8.73;;;21.10;99.90;;;;;;4977094;28;20433;-76
2023/08/19 01:30:41;;;;;;;10.43;8.57;;;21.10;99.90;;;;;;4972969;28;20066;-76
2023/08/19 01:33:06;;;;;;;13.05;8.05;;;21.10;99.90;;;;;;4980531;28;20385;-74
2023/08/19 01:35:39;;;;;;;14.27;8.45;;;21.10;99.90;;;;;;4979169;28;20126;-76
2023/08/19 01:38:16;;;;;;;13.73;8.30;;;21.00;99.90;;;;;;4979914;28;20507;-76
2023/08/19 01:40:42;;;;;;;12.43;8.15;;;21.30;99.90;;;;;;4976749;28;20089;-76
2023/08/19 01:43:11;;;;;;;10.25;8.55;;;21.30;99.90;;;;;;4977025;28;20030;-76
2023/08/19 01:45:38;;;;;;;12.20;8.25;;;21.20;99.90;;;;;;4987335;28;20076;-76
2023/08/19 01:48:04;;;;;;;11.65;8.30;;;21.10;99.90;;;;;;4976855;28;20031;-76
2023/08/19 01:50:30;;;;;;;13.07;7.95;;;21.20;99.90;;;;;;4976656;28;20033;-76
2023/08/19 01:52:56;;;;;;;11.38;7.38;;;21.10;99.90;;;;;;4979580;28;20030;-76
2023/08/19 01:55:22;;;;;;;15.20;8.77;;;21.10;99.90;;;;;;4972486;28;20125;-76
2023/08/19 01:57:48;;;;;;;9.93;8.07;;;21.20;99.90;;;;;;4980159;28;20038;-76
2023/08/19 02:00:14;;;;;;;10.23;8.10;;;21.00;99.90;;;;;;4978298;28;20034;-76
2023/08/19 02:02:39;;;;;;;11.30;7.40;;;21.00;99.90;;;;;;4980435;28;20068;-76
2023/08/19 02:05:05;;;;;;;10.82;8.20;;;20.90;99.90;;;;;;4975914;28;20480;-76
2023/08/19 02:07:31;;;;;;;11.27;7.15;;;21.00;99.90;;;;;;4974002;28;20407;-76
2023/08/19 02:09:56;;;;;;;11.40;8.55;;;20.90;99.90;;;;;;4978068;28;20058;-76
2023/08/19 02:12:22;;;;;;;10.63;7.60;;;21.10;99.90;;;;;;4981054;28;20041;-76
2023/08/19 02:14:48;;;;;;;9.95;6.90;;;21.00;99.90;;;;;;4984496;28;20042;-76
2023/08/19 02:17:13;;;;;;;10.77;7.18;;;20.90;99.90;;;;;;4977900;28;20022;-75
2023/08/19 02:19:39;;;;;;;10.25;7.57;;;20.90;99.90;;;;;;4974651;28;20038;-74
2023/08/19 02:22:06;;;;;;;10.45;7.25;;;21.00;99.90;;;;;;4980841;28;20108;-76
2023/08/19 02:24:31;;;;;;;9.60;6.85;;;21.00;99.90;;;;;;4978616;28;20152;-76
2023/08/19 02:26:57;;;;;;;19.08;8.38;;;20.80;99.90;;;;;;4981370;28;20105;-76
2023/08/19 02:29:22;;;;;;;11.20;7.75;;;20.70;99.90;;;;;;4983227;28;20034;-76
2023/08/19 02:31:48;;;;;;;10.82;7.82;;;20.70;99.90;;;;;;4974558;28;20041;-76
2023/08/19 02:34:14;;;;;;;10.55;7.57;;;20.60;99.90;;;;;;4977942;28;20047;-76
2023/08/19 02:36:39;;;;;;;10.00;7.03;;;20.60;99.90;;;;;;4985053;28;20049;-76
2023/08/19 02:39:05;;;;;;;12.65;8.70;;;20.50;99.90;;;;;;4977789;28;20113;-76
2023/08/19 02:41:31;;;;;;;10.40;7.13;;;20.40;99.90;;;;;;4979378;28;20030;-76
2023/08/19 02:43:56;;;;;;;11.93;8.07;;;20.60;99.90;;;;;;4980381;28;20034;-77
2023/08/19 02:46:22;;;;;;;12.48;7.88;;;20.60;99.90;;;;;;4977818;28;20034;-76
2023/08/19 02:48:48;;;;;;;12.00;7.68;;;20.70;99.90;;;;;;4975379;28;20480;-76
2023/08/19 02:51:13;;;;;;;9.65;6.78;;;20.60;99.90;;;;;;4976937;28;20031;-76
2023/08/19 02:53:39;;;;;;;10.88;7.82;;;20.60;99.90;;;;;;4975432;28;20038;-76
2023/08/19 02:56:06;;;;;;;10.52;7.20;;;20.40;99.90;;;;;;4974803;28;20042;-76
2023/08/19 02:58:32;;;;;;;9.77;7.28;;;20.60;99.90;;;;;;4975538;28;20456;-76
2023/08/19 03:00:58;;;;;;;13.18;6.70;;;20.70;99.90;;;;;;4971616;28;20109;-74
2023/08/19 03:03:24;;;;;;;11.02;7.18;;;20.60;99.90;;;;;;4976069;28;20109;-75
2023/08/19 03:05:50;;;;;;;11.20;7.22;;;20.50;99.90;;;;;;4974442;28;20026;-74
2023/08/19 03:08:16;;;;;;;12.13;8.43;;;20.60;99.90;;;;;;4972854;28;20066;-74
2023/08/19 03:10:41;;;;;;;12.20;7.43;;;20.50;99.90;;;;;;4976772;28;20071;-75
2023/08/19 03:13:09;;;;;;;8.77;6.80;;;20.50;99.90;;;;;;4973261;28;20530;-75
2023/08/19 03:15:37;;;;;;;11.80;7.05;;;20.40;99.90;;;;;;4977176;28;20044;-75
2023/08/19 03:18:03;;;;;;;15.25;7.70;;;20.50;99.90;;;;;;4976194;28;20130;-75
2023/08/19 03:20:29;;;;;;;11.88;6.72;;;20.40;99.90;;;;;;4975326;28;20034;-73
2023/08/19 03:22:55;;;;;;;11.90;7.60;;;20.40;99.90;;;;;;4968416;28;20065;-74
2023/08/19 03:25:20;;;;;;;10.25;7.50;;;20.60;99.90;;;;;;4970526;28;20082;-73
2023/08/19 03:27:46;;;;;;;12.10;6.95;;;20.30;99.90;;;;;;4977237;28;20041;-74
2023/08/19 03:30:12;;;;;;;10.18;7.07;;;20.30;99.90;;;;;;4972450;28;20034;-75
2023/08/19 03:32:37;;;;;;;9.38;6.70;;;20.20;99.90;;;;;;4967581;28;20042;-75
2023/08/19 03:35:03;;;;;;;11.93;7.63;;;20.10;99.90;;;;;;4980161;28;20136;-75
2023/08/19 03:37:29;;;;;;;9.65;6.22;;;20.10;99.90;;;;;;4970286;28;20118;-72
2023/08/19 03:39:54;;;;;;;11.35;6.93;;;20.10;99.90;;;;;;4971213;28;20031;-75
2023/08/19 03:42:20;;;;;;;12.23;6.25;;;20.20;99.90;;;;;;4974710;28;20596;-73
2023/08/19 03:44:46;;;;;;;10.93;5.90;;;20.20;99.90;;;;;;4969318;28;20043;-75
2023/08/19 03:47:13;;;;;;;9.00;6.57;;;20.40;99.90;;;;;;4973973;28;20650;-75
2023/08/19 03:49:39;;;;;;;9.45;6.00;;;20.80;99.90;;;;;;4981513;28;20810;-74
2023/08/19 03:52:06;;;;;;;9.10;5.82;;;20.70;99.90;;;;;;4967529;28;20082;-74
2023/08/19 03:54:32;;;;;;;9.40;6.72;;;20.70;99.90;;;;;;4972376;28;20045;-75
2023/08/19 03:56:58;;;;;;;9.40;5.50;;;20.60;99.90;;;;;;4971837;28;20026;-76
2023/08/19 03:59:24;;;;;;;8.93;6.22;;;20.50;99.90;;;;;;4974428;28;20762;-74
2023/08/19 04:01:49;;;;;;;9.23;6.38;;;20.50;99.90;;;;;;4971499;28;20110;-72
2023/08/19 04:04:15;;;;;;;13.45;7.35;;;20.50;99.90;;;;;;4965836;28;20034;-72
2023/08/19 04:06:41;;;;;;;9.23;5.80;;;20.40;99.90;;;;;;4971321;28;20130;-72
2023/08/19 04:09:07;;;;;;;9.10;5.68;;;20.40;99.90;;;;;;4963982;28;20463;-73
2023/08/19 04:11:33;;;;;;;8.07;6.28;;;20.40;99.90;;;;;;4975626;28;20364;-72
2023/08/19 04:13:59;;;;;;;14.38;6.07;;;20.40;99.90;;;;;;4964946;28;20034;-72
2023/08/19 04:16:24;;;;;;;10.68;6.30;;;20.30;99.90;;;;;;4966863;28;20117;-72
2023/08/19 04:18:50;;;;;;;11.50;6.65;;;20.30;99.90;;;;;;4965731;28;20452;-73
2023/08/19 04:21:17;;;;;;;10.48;5.95;;;20.30;99.90;;;;;;4975852;28;20030;-72
2023/08/19 04:23:42;;;;;;;8.77;6.20;;;20.40;99.90;;;;;;4965441;28;20081;-72
2023/08/19 04:26:08;;;;;;;10.45;5.47;;;20.30;99.90;;;;;;4967360;28;20038;-73
2023/08/19 04:28:33;;;;;;;10.30;6.05;;;20.10;99.90;;;;;;4975720;28;20050;-73
2023/08/19 04:31:07;;;;;;;13.75;5.53;;;20.10;99.90;;;;;;4963605;28;20118;-73
2023/08/19 04:33:33;;;;;;;10.65;5.57;;;20.20;99.90;;;;;;4963098;28;20039;-73
2023/08/19 04:35:59;;;;;;;8.38;5.60;;;20.20;99.90;;;;;;4975252;28;20039;-73
2023/08/19 04:38:25;;;;;;;8.02;4.93;;;20.30;99.90;;;;;;4969143;28;20648;-73
2023/08/19 04:40:51;;;;;;;10.70;6.07;;;20.40;99.90;;;;;;4964665;28;20753;-73
2023/08/19 04:43:20;;;;;;;10.30;5.95;;;20.50;99.90;;;;;;4970975;28;20030;-73
2023/08/19 04:45:46;;;;;;;9.25;5.47;;;20.50;99.90;;;;;;4968485;28;20037;-73
2023/08/19 04:48:12;;;;;;;8.93;5.07;;;20.50;99.90;;;;;;4979386;28;20018;-74
2023/08/19 04:50:37;;;;;;;11.63;5.38;;;20.30;99.90;;;;;;4980919;28;20109;-73
2023/08/19 04:53:03;;;;;;;10.38;5.80;;;20.30;99.90;;;;;;4977160;28;20027;-74
2023/08/19 04:55:29;;;;;;;6.78;4.55;;;20.40;99.90;;;;;;4970129;28;20101;-73
2023/08/19 04:57:55;;;;;;;12.55;5.03;;;20.50;99.90;;;;;;4976018;28;20037;-74
2023/08/19 05:00:21;;;;;;;8.32;5.28;;;20.60;99.90;;;;;;4972854;28;20031;-74
2023/08/19 05:02:48;;;;;;;8.18;5.35;;;20.60;99.90;;;;;;4975349;28;20117;-74
2023/08/19 05:05:14;;;;;;;11.20;5.00;;;20.50;99.90;;;;;;4971209;28;20030;-74
2023/08/19 05:07:40;;;;;;;8.93;5.03;;;20.50;99.90;;;;;;4974270;28;20506;-73
2023/08/19 05:10:06;;;;;;;9.23;5.78;;;20.60;99.90;;;;;;4973387;28;20444;-74
2023/08/19 05:12:32;;;;;;;7.75;4.85;;;20.60;99.90;;;;;;4971643;28;20034;-74
2023/08/19 05:14:57;;;;;;;10.98;5.13;;;20.60;99.90;;;;;;4970319;28;20121;-74
2023/08/19 05:17:23;;;;;;;7.20;4.90;;;20.70;99.90;;;;;;4978177;28;20038;-73
2023/08/19 05:19:49;;;;;;;8.80;5.18;;;20.70;99.90;;;;;;4978552;28;20034;-74
2023/08/19 05:22:15;;;;;;;7.22;4.57;;;20.70;99.90;;;;;;4967758;28;20093;-73
2023/08/19 05:24:41;;;;;;;10.48;5.10;;;20.60;99.90;;;;;;4968282;28;20026;-74
2023/08/19 05:27:07;;;;;;;10.90;5.28;;;20.70;99.90;;;;;;4980225;28;20117;-74
2023/08/19 05:29:32;;;;;;;12.55;5.10;;;20.70;99.90;;;;;;4976193;28;20075;-74
2023/08/19 05:31:58;;;;;;;9.52;5.43;;;20.70;99.90;;;;;;4976235;28;20036;-73
2023/08/19 05:34:27;;;;;;;9.73;5.25;;;20.80;99.90;;;;;;4970274;28;20404;-73
2023/08/19 05:36:53;;;;;;;10.43;4.80;;;20.80;99.90;;;;;;4971698;28;20066;-73
2023/08/19 05:39:19;;;;;;;8.80;5.35;;;20.80;99.90;;;;;;4976111;28;20058;-74
2023/08/19 05:41:44;;;;;;;13.98;5.32;;;20.70;99.90;;;;;;4977721;28;20037;-75
2023/08/19 05:44:10;;;;;;;9.25;4.88;;;20.60;99.90;;;;;;4976959;28;20038;-73
2023/08/19 05:46:36;;;;;;;10.63;5.20;;;20.70;99.90;;;;;;4976589;28;20113;-74
2023/08/19 05:49:02;;;;;;;9.10;5.00;;;20.80;99.90;;;;;;4973630;28;20118;-76
2023/08/19 05:51:28;;;;;;;8.93;5.65;;;20.70;99.90;;;;;;4978580;28;20061;-74
2023/08/19 05:54:00;;;;;;;9.73;4.85;;;20.80;99.90;;;;;;4968419;28;20039;-74
2023/08/19 05:56:26;;;;;;;6.40;4.07;;;20.90;99.90;;;;;;4970798;28;20049;-74
2023/08/19 05:58:52;;;;;;;6.75;4.72;;;21.00;99.90;;;;;;4975600;28;20404;-75
2023/08/19 06:01:18;;;;;;;10.10;4.45;;;21.00;99.90;;;;;;4969582;28;20037;-75
2023/08/19 06:03:43;;;;;;;7.25;4.40;;;21.00;99.90;;;;;;4976226;28;20041;-74
2023/08/19 06:06:09;;;;;;;9.80;5.72;;;21.00;99.90;;;;;;4970013;28;20037;-74
2023/08/19 06:08:35;;;;;;;8.02;5.03;;;21.00;99.90;;;;;;4974624;28;20072;-74
2023/08/19 06:11:06;;;;;;;8.20;4.53;;;21.00;99.90;;;;;;4971994;28;20133;-75
2023/08/19 06:13:36;;;;;;;14.43;5.32;;;21.00;99.90;;;;;;4978648;28;20030;-75
2023/08/19 06:16:03;;;;;;;8.30;4.82;;;21.00;99.90;;;;;;4975555;28;20038;-76
2023/08/19 06:18:30;;;;;;;10.18;4.82;;;21.20;99.90;;;;;;4972295;28;20034;-75
2023/08/19 06:20:56;;;;;;;9.23;5.30;;;21.20;99.90;;;;;;4968360;28;20070;-76
2023/08/19 06:23:22;;;;;;;11.63;4.55;;;21.30;99.90;;;;;;4973435;28;20607;-75
2023/08/19 06:25:49;;;;;;;8.23;4.68;;;21.50;99.90;;;;;;4972204;28;20106;-75
2023/08/19 06:28:15;;;;;;;11.48;5.28;;;21.50;99.90;;;;;;4970340;28;20030;-75
2023/08/19 06:30:41;;;;;;;8.75;4.38;;;21.70;99.90;;;;;;4965763;28;20035;-75
2023/08/19 06:33:07;;;;;;;11.73;5.13;;;21.90;99.90;;;;;;4969940;28;20038;-75
2023/08/19 06:35:34;;;;;;;11.88;5.43;;;22.10;99.90;;;;;;4968294;28;20046;-75
2023/08/19 06:38:10;;;;;;;8.38;4.55;;;22.30;99.90;;;;;;4972863;28;20058;-76
2023/08/19 06:40:37;;;;;;;12.75;5.40;;;22.30;99.90;;;;;;4966109;28;20030;-75
2023/08/19 06:43:06;;;;;;;7.32;4.15;;;22.50;99.90;;;;;;4973358;28;20053;-75
2023/08/19 06:45:33;;;;;;;6.55;4.38;;;22.70;99.90;;;;;;4977473;28;20042;-76
2023/08/19 06:48:02;;;;;;;11.05;4.63;;;22.80;99.90;;;;;;4973397;28;20031;-76
2023/08/19 06:50:28;;;;;;;10.38;5.13;;;22.90;99.90;;;;;;4967252;28;20575;-76
2023/08/19 06:52:54;;;;;;;10.05;4.80;;;23.10;99.90;;;;;;4973358;28;20492;-76
2023/08/19 06:55:20;;;;;;;9.93;4.45;;;23.40;99.90;;;;;;4974577;28;20042;-76
2023/08/19 06:58:03;;;;;;;9.93;4.57;;;23.60;99.90;;;;;;4972012;28;20026;-76
2023/08/19 07:00:33;;;;;;;9.93;4.83;;;24.00;99.90;;;;;;4971028;28;20034;-76
2023/08/19 07:03:00;;;;;;;7.72;4.97;;;24.60;99.90;;;;;;4965860;28;20574;-76
2023/08/19 07:05:30;;;;;;;10.98;4.50;;;26.00;99.90;;;;;;4977331;28;20109;-76
2023/08/19 07:07:59;;;;;;;8.82;4.07;;;27.20;99.90;;;;;;4973629;28;20041;-77
2023/08/19 07:10:25;;;;;;;8.93;4.82;;;28.30;98.60;;;;;;4975088;28;20511;-76
2023/08/19 07:12:51;;;;;;;9.13;5.00;;;29.00;97.50;;;;;;4969606;28;20489;-76
2023/08/19 07:15:17;;;;;;;10.15;5.53;;;30.00;96.20;;;;;;4973594;28;20035;-77
2023/08/19 07:17:44;;;;;;;8.48;4.55;;;30.40;94.90;;;;;;4973640;28;20043;-76
2023/08/19 07:20:16;;;;;;;7.85;4.85;;;30.80;94.70;;;;;;4970004;28;20027;-76
2023/08/19 07:22:44;;;;;;;7.43;4.43;;;31.40;94.00;;;;;;4972332;28;20030;-76
2023/08/19 07:25:10;;;;;;;12.38;4.03;;;30.40;94.10;;;;;;4970234;28;20070;-76
2023/08/19 07:27:36;;;;;;;8.65;4.68;;;30.50;93.90;;;;;;4962834;28;20031;-75
2023/08/19 07:30:03;;;;;;;7.10;4.78;;;31.20;93.70;;;;;;4970524;28;20409;-76
2023/08/19 07:32:31;;;;;;;7.60;4.13;;;31.50;92.90;;;;;;4967582;28;20966;-76
2023/08/19 07:34:57;;;;;;;8.88;4.70;;;31.80;93.20;;;;;;4966614;28;20496;-76
2023/08/19 07:37:23;;;;;;;8.73;4.85;;;31.40;92.80;;;;;;4970925;28;20038;-77
2023/08/19 07:39:52;;;;;;;9.32;4.45;;;31.10;93.50;;;;;;4979441;28;20065;-76
2023/08/19 07:42:17;;;;;;;7.40;4.28;;;30.90;93.50;;;;;;4967408;28;20126;-76
2023/08/19 07:44:43;;;;;;;8.27;4.38;;;30.00;93.70;;;;;;4976390;28;20101;-76
2023/08/19 07:47:09;;;;;;;12.13;4.65;;;27.50;96.40;;;;;;4968501;28;20033;-75
2023/08/19 07:49:34;;;;;;;7.50;4.93;;;26.30;98.10;;;;;;4979662;28;20027;-74
2023/08/19 07:52:00;;;;;;;8.23;5.15;;;25.40;99.40;;;;;;4972376;28;20081;-75
2023/08/19 07:54:25;;;;;;;9.43;4.78;;;25.00;99.90;;;;;;4979258;28;20027;-75
2023/08/19 07:56:53;;;;;;;9.60;4.97;;;24.80;99.90;;;;;;4966030;28;20058;-73
2023/08/19 07:59:21;;;;;;;6.45;4.35;;;24.60;99.90;;;;;;4967467;28;20027;-74
2023/08/19 08:01:46;;;;;;;7.28;4.45;;;24.40;99.90;;;;;;4975001;28;20113;-74
2023/08/19 08:04:12;;;;;;;9.15;4.47;;;24.30;99.90;;;;;;4972863;28;20137;-73
2023/08/19 08:06:38;;;;;;;10.02;5.30;;;24.40;99.90;;;;;;4969231;28;20673;-74
2023/08/19 08:09:04;;;;;;;9.77;5.13;;;24.40;99.90;;;;;;4967961;28;20042;-74
2023/08/19 08:11:29;;;;;;;10.02;4.82;;;24.40;99.90;;;;;;4965332;28;20070;-74
2023/08/19 08:13:56;;;;;;;10.60;5.25;;;24.40;99.90;;;;;;4973889;28;20064;-73
2023/08/19 08:16:21;;;;;;;8.70;5.32;;;24.40;99.90;;;;;;4976816;28;20042;-74
2023/08/19 08:18:47;;;;;;;9.05;5.85;;;24.40;99.90;;;;;;4972283;28;20038;-72
2023/08/19 08:21:14;;;;;;;7.97;4.72;;;24.40;99.90;;;;;;4977850;28;20031;-76
2023/08/19 08:23:40;;;;;;;10.68;4.68;;;24.20;99.90;;;;;;4985131;28;20084;-76
2023/08/19 08:26:06;;;;;;;11.75;5.03;;;24.40;99.90;;;;;;4988094;28;20026;-75
2023/08/19 08:28:32;;;;;;;10.15;4.97;;;24.50;99.90;;;;;;4988459;28;20034;-75
2023/08/19 08:30:58;;;;;;;9.48;4.60;;;24.50;99.90;;;;;;4987986;28;20559;-75
2023/08/19 08:33:25;;;;;;;8.48;4.45;;;24.50;99.90;;;;;;4983357;28;20037;-75
2023/08/19 08:35:51;;;;;;;10.93;4.55;;;24.70;99.90;;;;;;4969241;28;20043;-75
2023/08/19 08:38:17;;;;;;;8.82;5.32;;;26.80;98.90;;;;;;4985044;28;20045;-74
2023/08/19 08:40:42;;;;;;;7.80;4.57;;;28.50;97.00;;;;;;4984071;28;20105;-76
2023/08/19 08:43:08;;;;;;;12.70;5.57;;;29.30;96.50;;;;;;4987821;28;20155;-76
2023/08/19 08:45:35;;;;;;;11.30;5.38;;;29.50;96.20;;;;;;4986110;28;20031;-76
2023/08/19 08:48:02;;;;;;;13.52;5.25;;;29.60;96.00;;;;;;4988743;28;20030;-75
2023/08/19 08:50:28;;;;;;;7.43;4.05;;;30.10;96.40;;;;;;4988747;28;20030;-76
2023/08/19 08:52:55;;;;;;;8.65;5.28;;;30.40;96.20;;;;;;4985627;28;20019;-75
2023/08/19 08:55:21;;;;;;;9.10;5.38;;;30.20;95.30;;;;;;4986420;28;20136;-76
2023/08/19 08:57:46;;;;;;;12.35;4.70;;;30.30;95.60;;;;;;4988967;28;20077;-75
2023/08/19 09:00:14;;;;;;;7.32;4.38;;;30.40;95.00;;;;;;4988499;28;20045;-76
2023/08/19 09:02:43;;;;;;;7.18;4.28;;;30.30;95.80;;;;;;4986944;28;20436;-76
2023/08/19 09:05:09;;;;;;;8.13;4.85;;;29.60;95.30;;;;;;4987704;28;20045;-75
2023/08/19 09:07:39;;;;;;;9.13;4.65;;;29.50;95.90;;;;;;4988497;28;20023;-76
2023/08/19 09:10:12;;;;;;;8.05;4.53;;;29.40;95.20;;;;;;4988246;28;20077;-76
2023/08/19 09:12:40;;;;;;;7.70;5.03;;;28.50;96.20;;;;;;4988414;28;20053;-76
2023/08/19 09:15:07;;;;;;;9.68;5.00;;;27.90;97.40;;;;;;4987889;28;20540;-76
2023/08/19 09:17:33;;;;;;;8.68;5.00;;;27.10;97.20;;;;;;4973306;28;20568;-75
2023/08/19 09:20:00;;;;;;;7.53;5.03;;;26.50;97.10;;;;;;4966784;28;20031;-76
2023/08/19 09:22:26;;;;;;;8.75;4.75;;;26.30;97.90;;;;;;4969964;28;20031;-76
2023/08/19 09:24:54;;;;;;;7.85;4.53;;;26.70;98.00;;;;;;4967654;28;20039;-76
2023/08/19 09:27:28;;;;;;;8.50;4.82;;;26.90;97.80;;;;;;4983721;28;20061;-76
2023/08/19 09:29:53;;;;;;;10.15;4.53;;;27.10;97.70;;;;;;4987964;28;20520;-76
2023/08/19 09:32:36;;;;;;;7.35;4.57;;;27.40;97.10;;;;;;4976213;28;20113;-77
2023/08/19 09:35:03;;;;;;;7.90;4.82;;;27.50;97.10;;;;;;4985859;28;20058;-76
2023/08/19 09:37:32;;;;;;;7.50;4.45;;;27.40;97.10;;;;;;4990204;28;20038;-76
2023/08/19 09:39:58;;;;;;;9.57;5.10;;;27.30;97.30;;;;;;4991775;28;20546;-76
2023/08/19 09:42:26;;;;;;;7.55;4.70;;;27.40;97.70;;;;;;4984998;28;20038;-75
2023/08/19 09:44:52;;;;;;;13.43;5.63;;;27.40;97.10;;;;;;4991547;28;20363;-75
2023/08/19 09:47:19;;;;;;;9.45;4.53;;;27.40;97.50;;;;;;4980595;28;20039;-76
2023/08/19 09:49:45;;;;;;;9.05;4.75;;;27.50;97.80;;;;;;4985694;28;20030;-75
2023/08/19 09:52:17;;;;;;;10.95;4.72;;;27.50;97.50;;;;;;4989854;28;20038;-75
2023/08/19 09:54:53;;;;;;;13.57;5.22;;;27.60;96.90;;;;;;4990871;28;20485;-76
2023/08/19 09:57:39;;;;;;;7.70;4.57;;;27.50;96.60;;;;;;4991652;28;20053;-76
2023/08/19 10:00:05;;;;;;;7.93;4.50;;;27.60;97.00;;;;;;4990044;28;20070;-75
2023/08/19 10:02:32;;;;;;;8.73;4.28;;;27.60;97.60;;;;;;4991146;28;20065;-75
2023/08/19 10:04:58;;;;;;;9.77;4.60;;;27.80;97.50;;;;;;4990270;28;20026;-75
2023/08/19 10:07:30;;;;;;;11.45;4.78;;;27.90;98.00;;;;;;4991631;28;20686;-75
2023/08/19 10:10:01;;;;;;;9.00;4.65;;;27.90;97.30;;;;;;4991875;28;20033;-75
2023/08/19 10:12:27;;;;;;;8.90;5.40;;;27.90;96.60;;;;;;4991696;28;20134;-76
2023/08/19 10:14:57;;;;;;;8.27;4.30;;;27.80;97.00;;;;;;4984323;28;20034;-75
2023/08/19 10:17:25;;;;;;;8.75;4.28;;;28.40;96.20;;;;;;4988980;28;20030;-75
2023/08/19 10:19:59;;;;;;;12.48;5.03;;;28.70;96.70;;;;;;4978090;28;20519;-75
2023/08/19 10:22:26;;;;;;;8.75;4.35;;;29.00;96.20;;;;;;4990782;28;20038;-75
2023/08/19 10:24:54;;;;;;;8.93;4.82;;;29.00;95.90;;;;;;4990131;28;20120;-75
2023/08/19 10:27:20;;;;;;;11.60;4.57;;;29.20;95.80;;;;;;4991258;28;20499;-75
2023/08/19 10:29:46;;;;;;;8.60;5.00;;;29.20;95.80;;;;;;4988510;28;20064;-75
2023/08/19 10:32:33;;;;;;;9.55;4.43;;;29.20;95.40;;;;;;4988744;28;20041;-75
2023/08/19 10:35:09;;;;;;;9.02;4.78;;;29.20;95.70;;;;;;4989856;28;20046;-75
2023/08/19 10:37:39;;;;;;;9.27;4.25;;;29.10;96.40;;;;;;4990742;28;20080;-75
2023/08/19 10:40:14;;;;;;;6.53;4.55;;;29.30;96.00;;;;;;4989207;28;20034;-75
2023/08/19 10:42:40;;;;;;;11.00;4.47;;;29.20;96.20;;;;;;4990007;28;20089;-73
2023/08/19 10:45:18;;;;;;;9.57;4.53;;;29.30;95.70;;;;;;4990499;28;20511;-75
2023/08/19 10:47:44;;;;;;;10.43;5.05;;;29.20;95.80;;;;;;4989180;28;20042;-77
2023/08/19 10:50:11;;;;;;;10.68;4.43;;;29.30;95.80;;;;;;4976999;28;20026;-74
2023/08/19 10:52:59;;;;;;;8.60;4.30;;;29.40;96.10;;;;;;4982398;28;20034;-77
2023/08/19 10:55:25;;;;;;;12.25;4.40;;;29.40;95.50;;;;;;4976579;28;20088;-75
2023/08/19 10:57:51;;;;;;;8.05;5.25;;;29.30;95.70;;;;;;4986201;28;20037;-76
2023/08/19 11:00:23;;;;;;;11.30;4.75;;;29.00;94.80;;;;;;4985802;28;20455;-74
2023/08/19 11:02:49;;;;;;;8.88;5.05;;;29.20;95.70;;;;;;4980785;28;20449;-75
2023/08/19 11:05:24;;;;;;;9.93;4.50;;;29.50;95.20;;;;;;4984453;28;20091;-75
2023/08/19 11:07:51;;;;;;;7.57;4.07;;;29.70;95.50;;;;;;4985051;28;20602;-74
2023/08/19 11:10:17;;;;;;;6.43;4.85;;;29.70;95.30;;;;;;4985809;28;20034;-75
2023/08/19 11:12:45;;;;;;;9.50;4.28;;;29.80;95.70;;;;;;4985429;28;20030;-76
2023/08/19 11:15:11;;;;;;;6.82;4.15;;;30.10;95.10;;;;;;4985614;28;20637;-74
2023/08/19 11:17:37;;;;;;;11.27;4.82;;;30.10;95.50;;;;;;4985535;28;20038;-74
2023/08/19 11:20:10;;;;;;;9.98;4.57;;;30.50;95.00;;;;;;4997345;28;20439;-75
2023/08/19 11:22:48;;;;;;;10.13;5.50;;;30.50;94.10;;;;;;4984357;28;20022;-75
2023/08/19 11:25:15;;;;;;;9.30;4.50;;;30.20;95.00;;;;;;4986008;28;20272;-76
2023/08/19 11:27:41;;;;;;;8.45;4.18;;;30.50;95.00;;;;;;4983116;28;20035;-74
2023/08/19 11:30:10;;;;;;;10.30;4.38;;;30.50;95.20;;;;;;4985971;28;20037;-75
2023/08/19 11:32:36;;;;;;;7.28;4.20;;;30.80;95.20;;;;;;4977619;28;20386;-74
2023/08/19 11:35:02;;;;;;;9.35;4.35;;;30.90;94.30;;;;;;4976527;28;20059;-75
2023/08/19 11:37:29;;;;;;;7.40;4.10;;;30.90;95.20;;;;;;4985449;28;20042;-74
2023/08/19 11:39:54;;;;;;;8.63;4.57;;;30.70;94.80;;;;;;4983410;28;20049;-74
2023/08/19 11:42:20;;;;;;;9.70;4.65;;;30.70;94.70;;;;;;4985966;28;20042;-74
2023/08/19 11:44:46;;;;;;;5.40;4.35;;;30.90;95.40;;;;;;4984798;28;20441;-74
2023/08/19 11:47:13;;;;;;;9.27;4.38;;;30.70;94.50;;;;;;4986459;28;20077;-74
2023/08/19 11:49:43;;;;;;;8.10;4.63;;;30.90;95.00;;;;;;4986213;28;20041;-74
2023/08/19 11:52:09;;;;;;;7.45;4.03;;;30.90;95.20;;;;;;4985478;28;20037;-75
2023/08/19 11:54:35;;;;;;;9.23;5.13;;;30.90;95.20;;;;;;4985730;28;20113;-75
2023/08/19 11:57:02;;;;;;;7.43;4.53;;;30.90;95.70;;;;;;4980693;28;20042;-75
2023/08/19 11:59:35;;;;;;;9.68;4.40;;;31.10;95.00;;;;;;4978763;28;20039;-75
2023/08/19 12:02:05;;;;;;;10.70;4.50;;;31.00;94.30;;;;;;4980237;28;20054;-74
2023/08/19 12:04:33;;;;;;;9.45;4.32;;;31.10;94.60;;;;;;4971492;28;20026;-75
2023/08/19 12:07:03;;;;;;;8.45;4.13;;;31.00;93.60;;;;;;4966881;28;20113;-75
2023/08/19 12:09:36;;;;;;;8.02;4.15;;;30.90;94.20;;;;;;4970132;28;20039;-74
2023/08/19 12:12:10;;;;;;;8.82;4.07;;;31.10;94.40;;;;;;4972186;28;20376;-75
2023/08/19 12:14:37;;;;;;;9.50;4.38;;;31.00;94.40;;;;;;4980997;28;20037;-74
2023/08/19 12:17:04;;;;;;;7.38;3.80;;;31.10;94.30;;;;;;4979792;28;20022;-75
2023/08/19 12:19:30;;;;;;;10.27;4.72;;;31.10;94.80;;;;;;4968556;28;20113;-76
2023/08/19 12:21:56;;;;;;;6.88;3.88;;;31.20;94.80;;;;;;4980727;28;20085;-75
2023/08/19 12:24:21;;;;;;;8.02;3.78;;;31.40;94.50;;;;;;4985283;28;20080;-75
2023/08/19 12:26:47;;;;;;;6.13;3.63;;;31.50;94.20;;;;;;4986096;28;20041;-76
2023/08/19 12:29:13;;;;;;;8.05;4.53;;;31.40;94.80;;;;;;4988390;28;20036;-77
2023/08/19 12:31:38;;;;;;;11.57;4.68;;;31.70;95.20;;;;;;4988123;28;20026;-76
2023/08/19 12:34:04;;;;;;;8.35;4.53;;;31.80;94.90;;;;;;4987017;28;20041;-75
2023/08/19 12:36:30;;;;;;;9.10;4.10;;;31.80;94.60;;;;;;4984384;28;20038;-75
2023/08/19 12:38:55;;;;;;;6.45;4.57;;;31.60;95.20;;;;;;4988327;28;20037;-75
2023/08/19 12:41:21;;;;;;;8.60;4.88;;;31.70;94.90;;;;;;4988898;28;20053;-75
2023/08/19 12:43:47;;;;;;;6.88;4.60;;;31.90;95.70;;;;;;4988442;28;20041;-75